Giewont — C6YE4 — position and weather

sailwx.info

Track history (hours):
 
Tides and Currents Weather Stations Pressure Air Temp Water Temp Dewpoint Dewpoint Depression Visibility Wind Speed Wind Dir Waves Ship Positions

Giewont

Last reported at 2016-May-04 18:33 UTC. Time now 2016-May-04 19:20 UTC.
Position N 54°32' E 018°32'.

Length 229 m; draft 8.8 m.

Type: Cargo ship. MMSI: 311029800.

Date/timePositionNaut miles runAvg speedWind from/ knotsBaromVisibWave heightAir tempDewpointWater temp
2016-May-04 18:33N 54°32' E 018°32'0 0.0
2016-May-04 17:33N 54°32' E 018°32'0 0.0
2016-May-04 16:33N 54°32' E 018°32'0 0.0
2016-May-04 15:33N 54°32' E 018°32'0 0.0
2016-May-04 14:33N 54°32' E 018°32'0 0.0
2016-May-04 13:33N 54°32' E 018°32'0 0.0
2016-May-04 12:33N 54°32' E 018°32'4 4.3
2016-May-04 11:34N 54°32' E 018°40'1 1.4
2016-May-04 10:31N 54°31' E 018°41'0 0.0
2016-May-04 09:31N 54°31' E 018°41'0 0.0
2016-May-04 08:31N 54°31' E 018°41'0 0.0
2016-May-04 07:31N 54°31' E 018°41'0 0.0
2016-May-04 06:31N 54°31' E 018°41'0 0.0
2016-May-04 05:31N 54°31' E 018°41'0 0.0
2016-May-04 04:31N 54°31' E 018°41'0 0.0
2016-May-04 03:31N 54°31' E 018°41'0 0.0
2016-May-04 02:31N 54°31' E 018°41'0 0.0
2016-May-04 01:31N 54°31' E 018°41'0 0.0
2016-May-04 00:31N 54°31' E 018°41'0 0.0
2016-May-03 23:31N 54°31' E 018°41'0 0.0
2016-May-03 22:31N 54°31' E 018°41'0 0.0
2016-May-03 21:31N 54°31' E 018°41'0 0.0
2016-May-03 20:31N 54°31' E 018°41'0 0.0
2016-May-03 19:31N 54°31' E 018°41'0 0.0
2016-May-03 18:31N 54°31' E 018°41'0 0.0
2016-May-03 17:31N 54°31' E 018°41'0 0.0
2016-May-03 16:31N 54°31' E 018°41'0 0.0
2016-May-03 15:31N 54°31' E 018°41'0 0.0
2016-May-03 14:31N 54°31' E 018°41'0 0.0
2016-May-03 13:31N 54°31' E 018°41'0 0.0
2016-May-03 12:31N 54°31' E 018°41'0 0.0
2016-May-03 11:31N 54°31' E 018°41'0 0.0
2016-May-03 10:31N 54°31' E 018°41'0 0.0
2016-May-03 09:31N 54°31' E 018°41'0 0.0
2016-May-03 08:31N 54°31' E 018°41'0 0.0
2016-May-03 07:31N 54°31' E 018°41'0 0.0
2016-May-03 06:31N 54°31' E 018°41'0 0.0
2016-May-03 05:31N 54°31' E 018°41'0 0.0
2016-May-03 04:31N 54°31' E 018°41'0 0.0
2016-May-03 03:31N 54°31' E 018°41'0 0.0
2016-May-03 02:31N 54°31' E 018°41'0 0.0
2016-May-03 01:31N 54°31' E 018°41'0 0.0
2016-May-03 00:31N 54°31' E 018°41'0 0.0
2016-May-02 23:31N 54°31' E 018°41'0 0.0
2016-May-02 22:31N 54°31' E 018°41'0 0.0
2016-May-02 21:31N 54°31' E 018°41'0 0.0
2016-May-02 20:31N 54°31' E 018°41'0 0.0
2016-May-02 19:31N 54°31' E 018°41'0 0.0
2016-May-02 18:31N 54°31' E 018°41'0 0.0
2016-May-02 17:31N 54°31' E 018°41'0 0.0
2016-May-02 16:31N 54°31' E 018°41'0 0.0
2016-May-02 15:31N 54°31' E 018°41'0 0.0
2016-May-02 14:31N 54°31' E 018°41'0 0.0
2016-May-02 13:31N 54°31' E 018°41'0 0.0
2016-May-02 12:31N 54°31' E 018°41'0 0.1
2016-May-02 11:31N 54°31' E 018°41'0 0.0
2016-May-02 10:31N 54°31' E 018°41'0 0.0
2016-May-02 09:31N 54°31' E 018°41'0 0.0
2016-May-02 08:31N 54°31' E 018°41'0 0.0
2016-May-02 07:31N 54°31' E 018°41'0 0.1
2016-May-02 06:34N 54°31' E 018°41'3 3.5
2016-May-02 05:33N 54°32' E 018°47'8 8.3
2016-May-02 04:33N 54°39' E 018°55'1111.0
2016-May-02 03:33N 54°48' E 018°44'1312.8
2016-May-02 02:33N 54°55' E 018°26'1312.9
2016-May-02 01:33N 54°55' E 018°03'1312.9
2016-May-02 00:33N 54°54' E 017°41'1512.8
2016-May-01 23:24N 54°51' E 017°16'7612.9
2016-May-01 17:29N 54°39' E 015°06'1312.9
2016-May-01 16:28N 54°37' E 014°43'1212.8
2016-May-01 15:33N 54°36' E 014°23'1312.9
2016-May-01 14:33N 54°40' E 014°02'1313.0
2016-May-01 13:33N 54°44' E 013°41'1313.0
2016-May-01 12:32N 54°45' E 013°18'1312.8
2016-May-01 11:30N 54°46' E 012°55'1212.3
2016-May-01 10:33N 54°43' E 012°35'1212.4
2016-May-01 09:33N 54°36' E 012°18'1211.8
2016-May-01 08:33N 54°25' E 012°10'1110.4
2016-May-01 07:32N 54°15' E 012°04'6 5.9
2016-May-01 06:31N 54°10' E 012°07'0 0.1
2016-May-01 05:33N 54°09' E 012°07'0 0.0
2016-May-01 04:27N 54°09' E 012°07'0 0.0
2016-May-01 03:30N 54°09' E 012°07'0 0.0
2016-May-01 02:06N 54°09' E 012°07'0 0.0
2016-May-01 01:09N 54°09' E 012°07'0 0.0
2016-May-01 00:33N 54°09' E 012°07'0 0.0
2016-Apr-30 23:33N 54°09' E 012°07'0 0.0
2016-Apr-30 22:33N 54°09' E 012°07'0 0.0
2016-Apr-30 21:33N 54°09' E 012°07'0 0.0
2016-Apr-30 20:12N 54°09' E 012°07'0 0.0
2016-Apr-30 18:24N 54°09' E 012°07'0 0.0
2016-Apr-30 17:12N 54°09' E 012°07'0 0.0
2016-Apr-30 16:12N 54°09' E 012°07'0 0.0
2016-Apr-30 14:30N 54°09' E 012°07'0 0.0
2016-Apr-30 13:30N 54°09' E 012°07'0 0.0
2016-Apr-30 11:30N 54°09' E 012°07'0 0.0
2016-Apr-30 10:33N 54°09' E 012°07'0 0.0
2016-Apr-30 08:30N 54°09' E 012°07'0 0.0
2016-Apr-30 07:33N 54°09' E 012°07'0 0.0
2016-Apr-30 05:27N 54°09' E 012°07'0 0.0
2016-Apr-30 01:33N 54°09' E 012°07'0 0.0
2016-Apr-30 00:33N 54°09' E 012°07'0 0.0
2016-Apr-29 22:33N 54°09' E 012°07'0 0.0
2016-Apr-29 21:27N 54°09' E 012°07'0 0.0
2016-Apr-29 20:33N 54°09' E 012°07'0 0.0
2016-Apr-29 16:24N 54°09' E 012°07'0 0.0
2016-Apr-29 15:33N 54°09' E 012°07'0 0.0
2016-Apr-29 14:33N 54°09' E 012°07'0 0.0
2016-Apr-29 08:33N 54°09' E 012°07'0 0.0
2016-Apr-29 07:27N 54°09' E 012°07'0 0.0
2016-Apr-29 06:33N 54°09' E 012°07'0 0.0
2016-Apr-29 04:33N 54°09' E 012°07'0 0.0
2016-Apr-29 03:15N 54°09' E 012°07'0 0.0
2016-Apr-29 02:09N 54°09' E 012°07'0 0.0
2016-Apr-29 01:30N 54°09' E 012°07'0 0.0
2016-Apr-28 23:33N 54°09' E 012°07'0 0.0
2016-Apr-28 20:30N 54°09' E 012°07'0 0.0
2016-Apr-28 17:30N 54°09' E 012°07'0 0.0
2016-Apr-28 16:33N 54°09' E 012°07'0 0.0
2016-Apr-28 15:24N 54°09' E 012°07'0 0.0
2016-Apr-28 14:30N 54°09' E 012°07'0 0.0
2016-Apr-28 12:21N 54°09' E 012°07'0 0.0
2016-Apr-28 11:21N 54°09' E 012°07'0 0.0
2016-Apr-28 10:09N 54°09' E 012°07'0 0.0
2016-Apr-28 09:33N 54°09' E 012°07'0 0.0
2016-Apr-28 08:09N 54°09' E 012°07'0 0.0
2016-Apr-28 07:33N 54°09' E 012°07'0 0.0
2016-Apr-28 06:33N 54°09' E 012°07'0 0.0
2016-Apr-28 04:33N 54°09' E 012°07'0 0.0
2016-Apr-28 03:24N 54°09' E 012°07'0 0.0
2016-Apr-28 02:24N 54°09' E 012°07'0 0.0
2016-Apr-28 01:30N 54°09' E 012°07'0 0.0
2016-Apr-28 00:18N 54°09' E 012°07'0 0.0
2016-Apr-27 23:33N 54°09' E 012°07'0 0.0
2016-Apr-27 21:15N 54°09' E 012°07'0 0.0
2016-Apr-27 20:33N 54°09' E 012°07'0 0.0
2016-Apr-27 19:33N 54°09' E 012°07'0 0.0
2016-Apr-27 17:33N 54°09' E 012°07'0 0.0
2016-Apr-27 16:27N 54°09' E 012°07'0 0.0
2016-Apr-27 15:33N 54°09' E 012°07'0 0.0
2016-Apr-27 12:27N 54°09' E 012°07'0 0.0
2016-Apr-27 11:21N 54°09' E 012°07'0 0.0
2016-Apr-27 10:27N 54°09' E 012°07'0 0.0
2016-Apr-27 09:27N 54°09' E 012°07'0 0.0
2016-Apr-27 06:33N 54°09' E 012°07'0 0.0
2016-Apr-27 05:33N 54°09' E 012°07'0 0.0
2016-Apr-27 04:33N 54°09' E 012°07'0 0.0
2016-Apr-27 02:33N 54°09' E 012°07'0 0.0
2016-Apr-27 01:33N 54°09' E 012°07'0 0.0
2016-Apr-26 23:33N 54°09' E 012°07'0 0.0
2016-Apr-26 22:33N 54°09' E 012°07'0 0.0
2016-Apr-26 19:27N 54°09' E 012°07'0 0.0
2016-Apr-26 16:33N 54°09' E 012°07'0 0.0
2016-Apr-26 13:15N 54°09' E 012°07'0 0.0
2016-Apr-26 09:15N 54°09' E 012°07'0 0.0
2016-Apr-26 08:15N 54°09' E 012°07'0 0.0
2016-Apr-26 07:21N 54°09' E 012°07'0 0.0
2016-Apr-26 04:21N 54°09' E 012°07'0 0.0
2016-Apr-26 01:21N 54°09' E 012°07'0 0.0
2016-Apr-25 22:21N 54°09' E 012°07'0 0.0
2016-Apr-25 21:33N 54°09' E 012°07'0 0.0
2016-Apr-25 20:15N 54°09' E 012°07'0 0.0
2016-Apr-25 19:32N 54°09' E 012°07'0 0.0
2016-Apr-25 18:15N 54°09' E 012°07'0 0.0
2016-Apr-25 17:15N 54°09' E 012°07'0 0.0
2016-Apr-25 16:33N 54°09' E 012°07'0 0.0
2016-Apr-25 15:27N 54°09' E 012°07'0 0.0
2016-Apr-25 13:33N 54°09' E 012°07'0 0.0
2016-Apr-25 11:26N 54°09' E 012°07'0 0.0
2016-Apr-25 09:21N 54°09' E 012°07'0 0.0
2016-Apr-25 08:32N 54°09' E 012°07'0 0.0
2016-Apr-25 06:30N 54°09' E 012°07'0 0.0
2016-Apr-25 05:21N 54°09' E 012°07'0 0.0
2016-Apr-25 04:32N 54°09' E 012°07'0 0.0
2016-Apr-25 03:26N 54°09' E 012°07'0 0.0
2016-Apr-25 01:14N 54°09' E 012°07'0 0.0
2016-Apr-24 23:32N 54°09' E 012°07'0 0.0
2016-Apr-24 22:21N 54°09' E 012°07'  
Track history (hours):
 
Tides and Currents Weather Stations Pressure Air Temp Water Temp Dewpoint Dewpoint Depression Visibility Wind Speed Wind Dir Waves Ship Positions

Giewont

Last reported at 2016-May-04 18:33 UTC. Time now 2016-May-04 19:20 UTC.
Position N 54°32' E 018°32'.

Length 229 m; draft 8.8 m.

Type: Cargo ship. MMSI: 311029800.

Date/timePositionNaut miles runAvg speedWind from/ knotsBaromVisibWave heightAir tempDewpointWater temp
2016-May-04 18:33N 54°32' E 018°32'0 0.0
2016-May-04 17:33N 54°32' E 018°32'0 0.0
2016-May-04 16:33N 54°32' E 018°32'0 0.0
2016-May-04 15:33N 54°32' E 018°32'0 0.0
2016-May-04 14:33N 54°32' E 018°32'0 0.0
2016-May-04 13:33N 54°32' E 018°32'0 0.0
2016-May-04 12:33N 54°32' E 018°32'4 4.3
2016-May-04 11:34N 54°32' E 018°40'1 1.4
2016-May-04 10:31N 54°31' E 018°41'0 0.0
2016-May-04 09:31N 54°31' E 018°41'0 0.0
2016-May-04 08:31N 54°31' E 018°41'0 0.0
2016-May-04 07:31N 54°31' E 018°41'0 0.0
2016-May-04 06:31N 54°31' E 018°41'0 0.0
2016-May-04 05:31N 54°31' E 018°41'0 0.0
2016-May-04 04:31N 54°31' E 018°41'0 0.0
2016-May-04 03:31N 54°31' E 018°41'0 0.0
2016-May-04 02:31N 54°31' E 018°41'0 0.0
2016-May-04 01:31N 54°31' E 018°41'0 0.0
2016-May-04 00:31N 54°31' E 018°41'0 0.0
2016-May-03 23:31N 54°31' E 018°41'0 0.0
2016-May-03 22:31N 54°31' E 018°41'0 0.0
2016-May-03 21:31N 54°31' E 018°41'0 0.0
2016-May-03 20:31N 54°31' E 018°41'0 0.0
2016-May-03 19:31N 54°31' E 018°41'0 0.0
2016-May-03 18:31N 54°31' E 018°41'0 0.0
2016-May-03 17:31N 54°31' E 018°41'0 0.0
2016-May-03 16:31N 54°31' E 018°41'0 0.0
2016-May-03 15:31N 54°31' E 018°41'0 0.0
2016-May-03 14:31N 54°31' E 018°41'0 0.0
2016-May-03 13:31N 54°31' E 018°41'0 0.0
2016-May-03 12:31N 54°31' E 018°41'0 0.0
2016-May-03 11:31N 54°31' E 018°41'0 0.0
2016-May-03 10:31N 54°31' E 018°41'0 0.0
2016-May-03 09:31N 54°31' E 018°41'0 0.0
2016-May-03 08:31N 54°31' E 018°41'0 0.0
2016-May-03 07:31N 54°31' E 018°41'0 0.0
2016-May-03 06:31N 54°31' E 018°41'0 0.0
2016-May-03 05:31N 54°31' E 018°41'0 0.0
2016-May-03 04:31N 54°31' E 018°41'0 0.0
2016-May-03 03:31N 54°31' E 018°41'0 0.0
2016-May-03 02:31N 54°31' E 018°41'0 0.0
2016-May-03 01:31N 54°31' E 018°41'0 0.0
2016-May-03 00:31N 54°31' E 018°41'0 0.0
2016-May-02 23:31N 54°31' E 018°41'0 0.0
2016-May-02 22:31N 54°31' E 018°41'0 0.0
2016-May-02 21:31N 54°31' E 018°41'0 0.0
2016-May-02 20:31N 54°31' E 018°41'0 0.0
2016-May-02 19:31N 54°31' E 018°41'0 0.0
2016-May-02 18:31N 54°31' E 018°41'0 0.0
2016-May-02 17:31N 54°31' E 018°41'0 0.0
2016-May-02 16:31N 54°31' E 018°41'0 0.0
2016-May-02 15:31N 54°31' E 018°41'0 0.0
2016-May-02 14:31N 54°31' E 018°41'0 0.0
2016-May-02 13:31N 54°31' E 018°41'0 0.0
2016-May-02 12:31N 54°31' E 018°41'0 0.1
2016-May-02 11:31N 54°31' E 018°41'0 0.0
2016-May-02 10:31N 54°31' E 018°41'0 0.0
2016-May-02 09:31N 54°31' E 018°41'0 0.0
2016-May-02 08:31N 54°31' E 018°41'0 0.0
2016-May-02 07:31N 54°31' E 018°41'0 0.1
2016-May-02 06:34N 54°31' E 018°41'3 3.5
2016-May-02 05:33N 54°32' E 018°47'8 8.3
2016-May-02 04:33N 54°39' E 018°55'1111.0
2016-May-02 03:33N 54°48' E 018°44'1312.8
2016-May-02 02:33N 54°55' E 018°26'1312.9
2016-May-02 01:33N 54°55' E 018°03'1312.9
2016-May-02 00:33N 54°54' E 017°41'1512.8
2016-May-01 23:24N 54°51' E 017°16'7612.9
2016-May-01 17:29N 54°39' E 015°06'1312.9
2016-May-01 16:28N 54°37' E 014°43'1212.8
2016-May-01 15:33N 54°36' E 014°23'1312.9
2016-May-01 14:33N 54°40' E 014°02'1313.0
2016-May-01 13:33N 54°44' E 013°41'1313.0
2016-May-01 12:32N 54°45' E 013°18'1312.8
2016-May-01 11:30N 54°46' E 012°55'1212.3
2016-May-01 10:33N 54°43' E 012°35'1212.4
2016-May-01 09:33N 54°36' E 012°18'1211.8
2016-May-01 08:33N 54°25' E 012°10'1110.4
2016-May-01 07:32N 54°15' E 012°04'6 5.9
2016-May-01 06:31N 54°10' E 012°07'0 0.1
2016-May-01 05:33N 54°09' E 012°07'0 0.0
2016-May-01 04:27N 54°09' E 012°07'0 0.0
2016-May-01 03:30N 54°09' E 012°07'0 0.0
2016-May-01 02:06N 54°09' E 012°07'0 0.0
2016-May-01 01:09N 54°09' E 012°07'0 0.0
2016-May-01 00:33N 54°09' E 012°07'0 0.0
2016-Apr-30 23:33N 54°09' E 012°07'0 0.0
2016-Apr-30 22:33N 54°09' E 012°07'0 0.0
2016-Apr-30 21:33N 54°09' E 012°07'0 0.0
2016-Apr-30 20:12N 54°09' E 012°07'0 0.0
2016-Apr-30 18:24N 54°09' E 012°07'0 0.0
2016-Apr-30 17:12N 54°09' E 012°07'0 0.0
2016-Apr-30 16:12N 54°09' E 012°07'0 0.0
2016-Apr-30 14:30N 54°09' E 012°07'0 0.0
2016-Apr-30 13:30N 54°09' E 012°07'0 0.0
2016-Apr-30 11:30N 54°09' E 012°07'0 0.0
2016-Apr-30 10:33N 54°09' E 012°07'0 0.0
2016-Apr-30 08:30N 54°09' E 012°07'0 0.0
2016-Apr-30 07:33N 54°09' E 012°07'0 0.0
2016-Apr-30 05:27N 54°09' E 012°07'0 0.0
2016-Apr-30 01:33N 54°09' E 012°07'0 0.0
2016-Apr-30 00:33N 54°09' E 012°07'0 0.0
2016-Apr-29 22:33N 54°09' E 012°07'0 0.0
2016-Apr-29 21:27N 54°09' E 012°07'0 0.0
2016-Apr-29 20:33N 54°09' E 012°07'0 0.0
2016-Apr-29 16:24N 54°09' E 012°07'0 0.0
2016-Apr-29 15:33N 54°09' E 012°07'0 0.0
2016-Apr-29 14:33N 54°09' E 012°07'0 0.0
2016-Apr-29 08:33N 54°09' E 012°07'0 0.0
2016-Apr-29 07:27N 54°09' E 012°07'0 0.0
2016-Apr-29 06:33N 54°09' E 012°07'0 0.0
2016-Apr-29 04:33N 54°09' E 012°07'0 0.0
2016-Apr-29 03:15N 54°09' E 012°07'0 0.0
2016-Apr-29 02:09N 54°09' E 012°07'0 0.0
2016-Apr-29 01:30N 54°09' E 012°07'0 0.0
2016-Apr-28 23:33N 54°09' E 012°07'0 0.0
2016-Apr-28 20:30N 54°09' E 012°07'0 0.0
2016-Apr-28 17:30N 54°09' E 012°07'0 0.0
2016-Apr-28 16:33N 54°09' E 012°07'0 0.0
2016-Apr-28 15:24N 54°09' E 012°07'0 0.0
2016-Apr-28 14:30N 54°09' E 012°07'0 0.0
2016-Apr-28 12:21N 54°09' E 012°07'0 0.0
2016-Apr-28 11:21N 54°09' E 012°07'0 0.0
2016-Apr-28 10:09N 54°09' E 012°07'0 0.0
2016-Apr-28 09:33N 54°09' E 012°07'0 0.0
2016-Apr-28 08:09N 54°09' E 012°07'0 0.0
2016-Apr-28 07:33N 54°09' E 012°07'0 0.0
2016-Apr-28 06:33N 54°09' E 012°07'0 0.0
2016-Apr-28 04:33N 54°09' E 012°07'0 0.0
2016-Apr-28 03:24N 54°09' E 012°07'0 0.0
2016-Apr-28 02:24N 54°09' E 012°07'0 0.0
2016-Apr-28 01:30N 54°09' E 012°07'0 0.0
2016-Apr-28 00:18N 54°09' E 012°07'0 0.0
2016-Apr-27 23:33N 54°09' E 012°07'0 0.0
2016-Apr-27 21:15N 54°09' E 012°07'0 0.0
2016-Apr-27 20:33N 54°09' E 012°07'0 0.0
2016-Apr-27 19:33N 54°09' E 012°07'0 0.0
2016-Apr-27 17:33N 54°09' E 012°07'0 0.0
2016-Apr-27 16:27N 54°09' E 012°07'0 0.0
2016-Apr-27 15:33N 54°09' E 012°07'0 0.0
2016-Apr-27 12:27N 54°09' E 012°07'0 0.0
2016-Apr-27 11:21N 54°09' E 012°07'0 0.0
2016-Apr-27 10:27N 54°09' E 012°07'0 0.0
2016-Apr-27 09:27N 54°09' E 012°07'0 0.0
2016-Apr-27 06:33N 54°09' E 012°07'0 0.0
2016-Apr-27 05:33N 54°09' E 012°07'0 0.0
2016-Apr-27 04:33N 54°09' E 012°07'0 0.0
2016-Apr-27 02:33N 54°09' E 012°07'0 0.0
2016-Apr-27 01:33N 54°09' E 012°07'0 0.0
2016-Apr-26 23:33N 54°09' E 012°07'0 0.0
2016-Apr-26 22:33N 54°09' E 012°07'0 0.0
2016-Apr-26 19:27N 54°09' E 012°07'0 0.0
2016-Apr-26 16:33N 54°09' E 012°07'0 0.0
2016-Apr-26 13:15N 54°09' E 012°07'0 0.0
2016-Apr-26 09:15N 54°09' E 012°07'0 0.0
2016-Apr-26 08:15N 54°09' E 012°07'0 0.0
2016-Apr-26 07:21N 54°09' E 012°07'0 0.0
2016-Apr-26 04:21N 54°09' E 012°07'0 0.0
2016-Apr-26 01:21N 54°09' E 012°07'0 0.0
2016-Apr-25 22:21N 54°09' E 012°07'0 0.0
2016-Apr-25 21:33N 54°09' E 012°07'0 0.0
2016-Apr-25 20:15N 54°09' E 012°07'0 0.0
2016-Apr-25 19:32N 54°09' E 012°07'0 0.0
2016-Apr-25 18:15N 54°09' E 012°07'0 0.0
2016-Apr-25 17:15N 54°09' E 012°07'0 0.0
2016-Apr-25 16:33N 54°09' E 012°07'0 0.0
2016-Apr-25 15:27N 54°09' E 012°07'0 0.0
2016-Apr-25 13:33N 54°09' E 012°07'0 0.0
2016-Apr-25 11:26N 54°09' E 012°07'0 0.0
2016-Apr-25 09:21N 54°09' E 012°07'0 0.0
2016-Apr-25 08:32N 54°09' E 012°07'0 0.0
2016-Apr-25 06:30N 54°09' E 012°07'0 0.0
2016-Apr-25 05:21N 54°09' E 012°07'0 0.0
2016-Apr-25 04:32N 54°09' E 012°07'0 0.0
2016-Apr-25 03:26N 54°09' E 012°07'0 0.0
2016-Apr-25 01:14N 54°09' E 012°07'0 0.0
2016-Apr-24 23:32N 54°09' E 012°07'0 0.0
2016-Apr-24 22:21N 54°09' E 012°07'  

Dump ship's entire track history